Terrace Airport
CYXT : now visible

Airfield :











YOU CAN JOIN US ON...

 
LOGIN :

Register | Disclaimer

   EN    FR    IT 

 









Legend :    VFR   Marginal VFR   IFR   Intensive IFR   Very Intensive IFR
Visi :
Ceiling :
>= 8 km
>= 3000ft
5 to 8 km
1000 to 3000 ft
1500m to 5 km
500 to 1000 ft
800 to 1500m
200 to 500 ft
< 800m
< 200 ft
Symbols :   Thunderstorms  Fog  Heavy snow  Heavy precipitations  Wind > 20 kt






- Airport Elevation : 713 ft
- IATA code : YXT


CYXT - Terrace

CURRENT METAR :
  • 220220Z 36004KT 5SM -FZRA -SN FEW004 SCT020 OVC040 M01/M02 A2951 RMK SF1SC3SC4 SLP006

EXPIRED METARs :
  • 220200Z 01007KT 5SM -SN FEW006 SCT020 BKN035 OVC080 M01/M02 A2950 RMK SF1SC3SC2AC2 SLP002
  • 220100Z 03005KT 6SM -SN FEW002 FEW005 BKN020 BKN050 M01/M02 A2950 RMK SF1SF1SC3SC2 ICE ON INDICATOR SLP001
  • 220000Z 01008KT 6SM -SN FEW005 BKN020 OVC050 M01/M02 A2948 RMK SF2SC3SC3 PCPN VRY LGT SLP994

TAF TAF CYXT
Valid from the 22 at 01:00 until the 22 at 13:00 UTC


220038Z 2201/2213 01010KT 6SM -SN SCT005 OVC020
TEMPO 2201/2203 2SM -SN BKN005 OVC020
FM220300 01010KT P6SM SCT012 OVC025
TEMPO 2203/2213 5SM -SN FEW003 BKN008 OVC020 RMK NXT FCST BY 220700Z



MET'MAP, your aeronautical weather chart ! - Copyright ORBIFLY December 2007 - Disclaimer

ORBIFLY MET'MAP TEAM :

Programming & Development : Alexandra Zaïnal
Concept & original design : Baudouin d'Aumeries
Assistance for programming : Marc-Olivier Méhu
Technical & hardware support : Manuel Goepfert

Contact : metmap@orbifly.com




SOURCES & CREDITS :

   NOAA       Earth
Advisory